Nisku, Canada
Current Conditions -  °F | °C
As of 6:00 PM on Tuesday 25 Nov 2014 (Local Time) from CYEG Reporting Station
Overcast Overcast  
Wind Chill: 16°   Ceiling: 1800
Heat Index: 16°   Visibility: 15mi
Dew Point: 10°   Wind: 3mph
Humidity: 79%   Direction: 20°NNE
Pressure: 30.15"   Gusts: NA
Location:  53.33°N, 113.53°W
Report Text: CYEG 260100Z 02003KT 15SM FEW015 BKN018 OVC068 M09/M12 A3015 RMK SC2SC5AC1 SLP258
Loading
Personal Weather Stations






























Interactive Weather Map New forecast layout! Learn more

10-Day Weather Forecast

Advertisements
Track Severe Weather on mobile